Time;durP1;ratioP1;P1;durP2;ratioP2;P2;SDS_P1;SDS_P2;PMS_P1;PMS_P2;Temp;Humidity;BMP_temperature;BMP_pressure;BME280_temperature;BME280_humidity;BME280_pressure;Samples;Min_cycle;Max_cycle;Signal;HPM_P1;HPM_P2
2022/11/07 00:01:46;;;;;;;7.60;5.67;;;22.50;94.00;;;;;;5040322;28;20830;-42
2022/11/07 00:04:14;;;;;;;10.20;5.73;;;22.50;94.10;;;;;;5033498;28;20453;-43
2022/11/07 00:06:41;;;;;;;8.73;5.67;;;22.50;94.20;;;;;;5042849;28;20442;-42
2022/11/07 00:09:08;;;;;;;10.50;5.60;;;22.50;94.20;;;;;;5047822;28;20464;-43
2022/11/07 00:11:35;;;;;;;7.53;4.90;;;22.40;94.20;;;;;;5052023;28;20461;-41
2022/11/07 00:14:01;;;;;;;9.33;6.20;;;22.40;94.30;;;;;;5041394;28;20457;-39
2022/11/07 00:16:28;;;;;;;8.50;5.37;;;22.40;94.30;;;;;;5032058;28;20607;-42
2022/11/07 00:18:55;;;;;;;7.50;5.73;;;22.40;94.30;;;;;;5036568;28;20829;-39
2022/11/07 00:21:23;;;;;;;8.00;5.37;;;22.40;94.40;;;;;;5032097;28;20490;-39
2022/11/07 00:23:50;;;;;;;8.37;6.50;;;22.40;94.40;;;;;;5036883;28;20915;-40
2022/11/07 00:26:16;;;;;;;8.37;5.07;;;22.40;94.40;;;;;;5040404;28;20530;-40
2022/11/07 00:28:44;;;;;;;8.00;6.13;;;22.30;94.30;;;;;;5032116;28;20446;-42
2022/11/07 00:31:12;;;;;;;8.63;5.53;;;22.40;94.40;;;;;;5033797;28;20462;-39
2022/11/07 00:33:39;;;;;;;7.50;4.60;;;22.40;94.40;;;;;;5030860;28;20467;-38
2022/11/07 00:36:07;;;;;;;6.27;4.73;;;22.40;94.40;;;;;;5033597;28;20471;-41
2022/11/07 00:38:35;;;;;;;7.87;5.60;;;22.40;94.40;;;;;;5039216;28;20461;-43
2022/11/07 00:41:04;;;;;;;6.93;5.33;;;22.30;94.30;;;;;;5041083;28;20477;-41
2022/11/07 00:43:32;;;;;;;7.13;5.27;;;22.30;94.30;;;;;;5032259;28;20477;-40
2022/11/07 00:46:01;;;;;;;5.83;5.00;;;22.30;94.40;;;;;;5032025;28;20465;-39
2022/11/07 00:48:28;;;;;;;8.83;5.57;;;22.30;94.40;;;;;;5034355;28;20949;-43
2022/11/07 00:50:55;;;;;;;5.43;4.63;;;22.20;94.40;;;;;;5041410;28;20464;-40
2022/11/07 00:53:22;;;;;;;7.80;4.97;;;22.30;94.50;;;;;;5033837;28;20462;-39
2022/11/07 00:55:50;;;;;;;6.30;4.90;;;22.20;94.50;;;;;;5034162;28;20532;-41
2022/11/07 00:58:17;;;;;;;6.77;4.93;;;22.20;94.90;;;;;;5034680;28;20938;-41
2022/11/07 01:00:44;;;;;;;7.80;5.20;;;22.20;94.50;;;;;;5031981;28;20814;-43
2022/11/07 01:05:56;;;;;;;7.37;5.10;;;22.20;94.60;;;;;;5037949;28;20859;-41
2022/11/07 01:08:23;;;;;;;6.90;4.87;;;22.10;94.60;;;;;;5040806;28;20462;-41
2022/11/07 01:10:51;;;;;;;8.47;5.63;;;22.10;94.70;;;;;;5047774;28;20829;-41
2022/11/07 01:13:17;;;;;;;6.00;4.73;;;22.10;94.70;;;;;;5051229;28;20449;-42
2022/11/07 01:15:44;;;;;;;8.30;4.20;;;22.00;94.70;;;;;;5035571;28;20454;-44
2022/11/07 01:18:11;;;;;;;7.00;4.70;;;22.00;94.80;;;;;;5033089;28;20485;-41
2022/11/07 01:20:38;;;;;;;4.10;3.73;;;22.00;94.80;;;;;;5048469;28;20445;-40
2022/11/07 01:23:04;;;;;;;5.90;4.40;;;22.00;95.20;;;;;;5039056;28;20503;-44
2022/11/07 01:25:31;;;;;;;6.10;4.67;;;22.00;94.90;;;;;;5035787;28;20457;-40
2022/11/07 01:27:59;;;;;;;7.17;4.70;;;22.00;95.00;;;;;;5040613;28;20464;-41
2022/11/07 01:30:26;;;;;;;5.73;4.03;;;21.90;95.00;;;;;;5038877;28;20462;-41
2022/11/07 01:32:53;;;;;;;6.43;4.73;;;21.90;95.00;;;;;;5038255;28;20461;-42
2022/11/07 01:35:19;;;;;;;7.20;4.70;;;21.90;95.10;;;;;;5042355;28;20458;-41
2022/11/07 01:37:46;;;;;;;6.17;4.37;;;21.80;95.10;;;;;;5040843;28;20461;-41
2022/11/07 01:40:13;;;;;;;6.20;4.30;;;21.80;95.10;;;;;;5032606;28;20460;-42
2022/11/07 01:42:40;;;;;;;8.53;4.37;;;21.80;95.20;;;;;;5030780;28;20482;-40
2022/11/07 01:45:18;;;;;;;6.63;3.90;;;21.80;95.20;;;;;;5031240;28;20462;-41
2022/11/07 01:47:45;;;;;;;5.87;4.73;;;21.80;95.30;;;;;;5036827;28;20464;-44
2022/11/07 01:50:12;;;;;;;5.60;3.97;;;21.70;95.30;;;;;;5037525;28;21023;-41
2022/11/07 01:52:41;;;;;;;6.77;4.47;;;21.70;95.40;;;;;;5029304;28;20461;-41
2022/11/07 01:55:12;;;;;;;6.27;4.10;;;21.70;95.40;;;;;;5040538;28;20503;-40
2022/11/07 01:57:44;;;;;;;6.60;5.10;;;21.70;95.50;;;;;;5039097;28;20441;-41
2022/11/07 02:00:17;;;;;;;6.57;4.00;;;21.60;95.50;;;;;;5033831;28;20703;-41
2022/11/07 02:02:46;;;;;;;7.33;4.57;;;21.60;95.60;;;;;;5031600;28;20477;-43
2022/11/07 02:05:18;;;;;;;6.70;4.45;;;21.60;95.60;;;;;;5044827;28;20464;-41
2022/11/07 02:07:46;;;;;;;5.95;4.32;;;21.60;95.70;;;;;;5036008;28;20203;-41
2022/11/07 02:10:14;;;;;;;6.47;4.63;;;21.50;95.70;;;;;;5043036;28;20200;-42
2022/11/07 02:12:42;;;;;;;5.23;4.50;;;21.50;95.70;;;;;;5034532;28;20192;-41
2022/11/07 02:15:11;;;;;;;7.68;4.85;;;21.50;95.80;;;;;;5041269;28;20480;-41
2022/11/07 02:17:38;;;;;;;4.50;4.00;;;21.50;95.90;;;;;;5046319;28;20219;-42
2022/11/07 02:20:06;;;;;;;6.47;4.47;;;21.40;95.90;;;;;;5042108;28;20472;-41
2022/11/07 02:22:39;;;;;;;6.93;4.45;;;21.50;96.10;;;;;;5042145;28;20195;-40
2022/11/07 02:25:10;;;;;;;5.00;4.28;;;21.40;96.00;;;;;;5041703;28;20196;-40
2022/11/07 02:27:38;;;;;;;5.50;4.18;;;21.40;96.10;;;;;;5039759;28;20183;-41
2022/11/07 02:30:07;;;;;;;9.63;4.75;;;21.40;96.20;;;;;;5035823;28;20210;-45
2022/11/07 02:32:34;;;;;;;6.22;4.45;;;21.30;96.20;;;;;;5039826;28;20630;-44
2022/11/07 02:35:02;;;;;;;6.15;4.20;;;21.30;96.30;;;;;;5032930;28;20200;-41
2022/11/07 02:37:32;;;;;;;6.47;4.50;;;21.30;96.40;;;;;;5035283;28;20188;-40
2022/11/07 02:40:00;;;;;;;6.88;4.38;;;21.20;96.40;;;;;;5033600;28;20211;-41
2022/11/07 02:42:42;;;;;;;7.38;4.22;;;21.20;96.50;;;;;;5043555;28;20199;-41
2022/11/07 02:45:10;;;;;;;7.40;4.55;;;21.20;96.60;;;;;;5034026;28;20555;-41
2022/11/07 02:47:37;;;;;;;6.03;3.80;;;21.20;96.70;;;;;;5033868;28;20188;-41
2022/11/07 02:50:08;;;;;;;7.47;4.72;;;21.10;96.70;;;;;;5047738;28;20195;-41
2022/11/07 02:52:35;;;;;;;4.70;4.05;;;21.10;96.80;;;;;;5032985;28;20192;-45
2022/11/07 02:55:01;;;;;;;8.10;3.78;;;21.10;96.80;;;;;;5039325;28;20249;-43
2022/11/07 02:57:29;;;;;;;7.53;4.05;;;21.00;96.90;;;;;;5039585;28;20566;-47
2022/11/07 02:59:56;;;;;;;5.70;3.78;;;21.10;97.00;;;;;;5039640;28;20195;-41
2022/11/07 03:02:23;;;;;;;5.55;3.95;;;21.00;97.10;;;;;;5034772;28;20203;-40
2022/11/07 03:04:51;;;;;;;5.75;4.00;;;21.00;97.10;;;;;;5041707;28;20223;-39
2022/11/07 03:07:17;;;;;;;4.90;3.38;;;21.00;97.20;;;;;;5034356;28;20571;-41
2022/11/07 03:09:44;;;;;;;5.55;3.90;;;21.00;97.30;;;;;;5051542;28;20215;-42
2022/11/07 03:12:11;;;;;;;4.93;3.55;;;20.90;97.30;;;;;;5037329;28;20207;-41
2022/11/07 03:14:39;;;;;;;4.65;3.60;;;20.90;97.40;;;;;;5043047;28;20195;-40
2022/11/07 03:17:06;;;;;;;4.32;3.55;;;20.90;97.50;;;;;;5036060;28;20220;-41
2022/11/07 03:19:32;;;;;;;5.30;3.80;;;20.80;97.50;;;;;;5042946;28;20196;-41
2022/11/07 03:21:59;;;;;;;5.90;3.92;;;20.80;97.60;;;;;;5032270;28;20196;-42
2022/11/07 03:24:26;;;;;;;5.00;4.50;;;20.80;97.70;;;;;;5039447;28;20215;-41
2022/11/07 03:26:52;;;;;;;5.20;3.50;;;20.70;97.70;;;;;;5033342;28;20196;-41
2022/11/07 03:29:19;;;;;;;4.57;3.83;;;20.70;97.90;;;;;;5034369;28;20317;-40
2022/11/07 03:31:47;;;;;;;6.32;3.70;;;20.70;97.90;;;;;;5037359;28;20196;-43
2022/11/07 03:34:14;;;;;;;4.53;3.63;;;20.70;98.00;;;;;;5037736;28;20195;-41
2022/11/07 03:36:40;;;;;;;6.15;3.58;;;20.70;98.00;;;;;;5034500;28;20192;-40
2022/11/07 03:39:07;;;;;;;5.63;3.33;;;20.60;98.10;;;;;;5041619;28;20219;-44
2022/11/07 03:41:34;;;;;;;4.80;3.75;;;20.60;98.10;;;;;;5041236;28;20192;-40
2022/11/07 03:44:01;;;;;;;5.47;3.53;;;20.60;98.20;;;;;;5032590;28;20242;-40
2022/11/07 03:46:27;;;;;;;4.13;3.22;;;20.60;98.30;;;;;;5033062;28;20199;-43
2022/11/07 03:48:56;;;;;;;5.43;3.78;;;20.50;98.40;;;;;;5040781;28;20593;-41
2022/11/07 03:51:22;;;;;;;3.60;3.00;;;20.50;98.40;;;;;;5040424;28;20558;-40
2022/11/07 03:53:49;;;;;;;5.75;3.63;;;20.50;98.50;;;;;;5042771;28;20199;-40
2022/11/07 03:56:16;;;;;;;4.88;3.47;;;20.50;98.60;;;;;;5031526;28;20200;-43
2022/11/07 03:58:42;;;;;;;3.75;3.28;;;20.40;98.70;;;;;;5034813;28;20218;-41
2022/11/07 04:01:10;;;;;;;4.95;3.10;;;20.50;98.80;;;;;;5038152;28;20207;-41
2022/11/07 04:03:37;;;;;;;4.53;2.80;;;20.40;99.10;;;;;;5042550;28;20671;-41
2022/11/07 04:06:05;;;;;;;4.65;3.50;;;20.40;98.80;;;;;;5032064;28;20207;-40
2022/11/07 04:08:32;;;;;;;3.58;3.17;;;20.40;98.90;;;;;;5036281;28;20203;-41
2022/11/07 04:10:59;;;;;;;4.07;2.85;;;20.30;99.00;;;;;;5038401;28;20195;-41
2022/11/07 04:18:51;;;;;;;3.35;3.03;;;20.30;99.20;;;;;;5037253;28;20191;-41
2022/11/07 04:21:19;;;;;;;4.18;3.65;;;20.20;99.20;;;;;;5034476;28;20559;-40
2022/11/07 04:23:46;;;;;;;6.15;3.20;;;20.20;99.30;;;;;;5032328;28;20713;-40
2022/11/07 04:28:57;;;;;;;4.35;2.90;;;20.20;99.50;;;;;;5039802;28;20717;-41
2022/11/07 04:31:23;;;;;;;4.90;4.10;;;20.20;99.60;;;;;;5040986;28;20202;-42
2022/11/07 04:33:50;;;;;;;3.75;3.20;;;20.20;99.60;;;;;;5044472;28;20222;-41
2022/11/07 04:36:17;;;;;;;3.42;2.83;;;20.20;99.70;;;;;;5039252;28;20726;-41
2022/11/07 04:38:45;;;;;;;3.47;2.92;;;20.10;99.70;;;;;;5030788;28;20222;-41
2022/11/07 04:41:19;;;;;;;4.78;3.00;;;20.10;99.80;;;;;;5045591;28;20351;-40
2022/11/07 04:43:46;;;;;;;3.50;2.90;;;20.10;99.90;;;;;;5034159;28;20778;-41
2022/11/07 04:46:12;;;;;;;2.92;2.50;;;20.10;99.90;;;;;;5041666;28;20206;-40
2022/11/07 04:48:39;;;;;;;3.38;2.97;;;20.10;99.90;;;;;;5041318;28;20666;-41
2022/11/07 04:51:06;;;;;;;3.17;2.97;;;20.10;99.90;;;;;;5042856;28;20203;-40
2022/11/07 04:53:32;;;;;;;4.40;2.78;;;20.00;99.90;;;;;;5031709;28;20702;-40
2022/11/07 04:56:00;;;;;;;4.88;3.42;;;20.00;99.90;;;;;;5035728;28;20187;-40
2022/11/07 04:58:27;;;;;;;5.30;3.35;;;20.00;99.90;;;;;;5041514;28;20191;-40
2022/11/07 05:00:54;;;;;;;4.32;3.17;;;20.00;99.90;;;;;;5032039;28;20202;-41
2022/11/07 05:03:20;;;;;;;2.80;2.50;;;20.00;99.90;;;;;;5038313;28;20199;-40
2022/11/07 05:05:47;;;;;;;5.22;3.00;;;20.00;99.90;;;;;;5037007;28;20195;-41
2022/11/07 05:08:14;;;;;;;3.20;2.90;;;20.00;99.90;;;;;;5033210;28;20203;-41
2022/11/07 05:10:40;;;;;;;3.83;3.03;;;20.40;99.90;;;;;;5039025;28;20200;-40
2022/11/07 05:13:08;;;;;;;4.82;2.95;;;20.60;99.80;;;;;;5030247;28;20203;-42
2022/11/07 05:15:35;;;;;;;3.35;2.85;;;20.90;99.40;;;;;;5038216;28;20253;-42
2022/11/07 05:18:02;;;;;;;3.47;2.78;;;21.00;98.70;;;;;;5035884;28;20223;-40
2022/11/07 05:20:31;;;;;;;2.70;2.40;;;21.00;98.50;;;;;;5045683;28;20195;-41
2022/11/07 05:23:17;;;;;;;3.03;2.47;;;21.20;98.30;;;;;;5034198;28;20208;-40
2022/11/07 05:25:46;;;;;;;3.20;2.40;;;21.30;97.90;;;;;;5035642;28;20632;-41
2022/11/07 05:28:16;;;;;;;3.37;2.90;;;21.30;97.60;;;;;;5041640;28;20969;-40
2022/11/07 05:30:44;;;;;;;3.60;3.10;;;21.30;97.60;;;;;;5032935;28;20531;-41
2022/11/07 05:33:12;;;;;;;5.47;4.17;;;21.20;97.50;;;;;;5033894;28;20458;-40
2022/11/07 05:35:39;;;;;;;5.07;2.60;;;21.20;97.60;;;;;;5032706;28;20461;-40
2022/11/07 05:38:06;;;;;;;3.38;2.70;;;21.20;97.70;;;;;;5033394;28;20961;-41
2022/11/07 05:40:35;;;;;;;3.37;2.33;;;21.10;97.70;;;;;;5031704;28;20590;-41
2022/11/07 05:43:02;;;;;;;4.00;2.67;;;21.10;97.70;;;;;;5040661;28;20469;-41
2022/11/07 05:45:32;;;;;;;4.00;3.20;;;21.10;97.70;;;;;;5030341;28;20681;-41
2022/11/07 05:47:59;;;;;;;3.33;3.00;;;21.10;97.70;;;;;;5031234;28;20204;-40
2022/11/07 05:50:26;;;;;;;3.35;2.60;;;21.20;97.70;;;;;;5032749;28;20458;-40
2022/11/07 05:52:53;;;;;;;3.30;2.10;;;21.40;97.40;;;;;;5033117;28;20709;-40
2022/11/07 05:55:20;;;;;;;2.80;2.07;;;21.50;97.00;;;;;;5040090;28;20817;-40
2022/11/07 05:57:47;;;;;;;3.93;2.73;;;21.50;96.70;;;;;;5035453;28;20466;-41
2022/11/07 06:00:15;;;;;;;3.37;2.80;;;21.60;96.60;;;;;;5039350;28;20458;-41
2022/11/07 06:02:44;;;;;;;2.90;1.97;;;21.60;96.50;;;;;;5030644;28;20446;-41
2022/11/07 06:05:11;;;;;;;2.90;2.60;;;21.70;96.40;;;;;;5035022;28;20486;-41
2022/11/07 06:07:39;;;;;;;3.97;2.47;;;21.70;96.10;;;;;;5042073;28;20453;-40
2022/11/07 06:10:08;;;;;;;3.80;3.40;;;21.80;95.90;;;;;;5033262;28;20465;-40
2022/11/07 06:12:35;;;;;;;3.73;3.30;;;21.90;95.70;;;;;;5030589;28;20534;-42
2022/11/07 06:15:01;;;;;;;2.70;2.33;;;21.90;95.50;;;;;;5034383;28;20470;-41
2022/11/07 06:17:28;;;;;;;3.97;2.73;;;21.90;95.50;;;;;;5030516;28;20481;-41
2022/11/07 06:19:56;;;;;;;4.53;3.03;;;21.80;95.40;;;;;;5038155;28;20973;-40
2022/11/07 06:22:24;;;;;;;3.50;2.30;;;21.80;95.40;;;;;;5031985;28;20929;-40
2022/11/07 06:24:50;;;;;;;2.33;2.13;;;21.80;95.40;;;;;;5036499;28;20506;-41
2022/11/07 06:27:17;;;;;;;3.50;2.77;;;21.80;95.40;;;;;;5041999;28;20460;-41
2022/11/07 06:29:44;;;;;;;3.67;2.80;;;21.70;95.40;;;;;;5037647;28;20945;-41
2022/11/07 06:32:10;;;;;;;3.10;2.40;;;21.70;95.60;;;;;;5030274;28;20464;-41
2022/11/07 06:34:37;;;;;;;2.30;2.03;;;21.70;95.70;;;;;;5045899;28;20956;-41
2022/11/07 06:37:06;;;;;;;3.33;2.20;;;21.70;95.70;;;;;;5032490;28;20820;-41
2022/11/07 06:39:32;;;;;;;5.87;2.47;;;21.70;97.90;;;;;;5029850;28;20472;-40
2022/11/07 06:41:59;;;;;;;5.03;2.43;;;21.60;98.90;;;;;;5030184;28;20449;-41
2022/11/07 06:44:26;;;;;;;8.27;2.27;;;21.60;99.60;;;;;;5032671;28;20486;-41
2022/11/07 06:46:52;;;;;;;2.80;2.47;;;21.60;99.80;;;;;;5029213;28;20470;-41
2022/11/07 06:49:19;;;;;;;2.90;2.33;;;21.60;99.90;;;;;;5036778;28;20473;-42
2022/11/07 06:51:46;;;;;;;4.20;2.73;;;21.60;99.80;;;;;;5037626;28;20461;-42
2022/11/07 06:54:14;;;;;;;2.60;2.03;;;21.60;99.80;;;;;;5041972;28;20764;-41
2022/11/07 06:56:40;;;;;;;3.50;2.23;;;21.70;99.80;;;;;;5037093;28;20462;-41
2022/11/07 06:59:07;;;;;;;3.83;2.20;;;21.70;99.60;;;;;;5044104;28;20828;-44
2022/11/07 07:01:35;;;;;;;3.13;2.77;;;21.80;99.50;;;;;;5034628;28;20485;-43
2022/11/07 07:04:01;;;;;;;4.23;2.40;;;21.90;99.20;;;;;;5049361;28;20481;-40
2022/11/07 07:06:28;;;;;;;3.27;2.10;;;22.00;99.00;;;;;;5039595;28;20449;-39
2022/11/07 07:08:55;;;;;;;3.50;2.97;;;22.10;98.80;;;;;;5033064;28;20957;-38
2022/11/07 07:11:23;;;;;;;3.10;2.33;;;22.20;98.40;;;;;;5035493;28;20449;-38
2022/11/07 07:13:49;;;;;;;3.83;2.50;;;22.30;97.80;;;;;;5034103;28;20660;-38
2022/11/07 07:16:16;;;;;;;2.83;1.63;;;22.40;97.30;;;;;;5033339;28;20478;-38
2022/11/07 07:18:42;;;;;;;3.30;2.83;;;22.40;96.80;;;;;;5045846;28;20454;-38
2022/11/07 07:21:11;;;;;;;4.20;2.37;;;22.50;96.50;;;;;;5037935;28;20458;-40
2022/11/07 07:23:38;;;;;;;3.10;2.57;;;22.50;96.30;;;;;;5041525;28;20581;-37
2022/11/07 07:26:07;;;;;;;2.60;2.23;;;22.50;96.10;;;;;;5038793;28;20484;-38
2022/11/07 07:28:36;;;;;;;4.30;2.43;;;22.40;95.90;;;;;;5035520;28;20461;-38
2022/11/07 07:31:09;;;;;;;3.13;2.23;;;22.40;95.80;;;;;;5039727;28;20540;-41
2022/11/07 07:33:36;;;;;;;4.00;2.50;;;22.40;95.70;;;;;;5034616;28;20464;-41
2022/11/07 07:36:03;;;;;;;2.47;1.63;;;22.40;95.60;;;;;;5032860;28;20504;-40
2022/11/07 07:38:30;;;;;;;2.47;2.10;;;22.40;95.50;;;;;;5043260;28;20466;-39
2022/11/07 07:40:58;;;;;;;3.37;2.10;;;22.40;95.50;;;;;;5038455;28;20528;-40
2022/11/07 07:43:25;;;;;;;2.13;1.90;;;22.40;93.70;;;;;;5032242;28;20500;-42
2022/11/07 07:45:53;;;;;;;2.90;2.10;;;22.30;94.30;;;;;;5036206;28;20838;-40
2022/11/07 07:48:20;;;;;;;4.13;2.03;;;22.30;94.40;;;;;;5035123;28;20465;-34
2022/11/07 07:50:47;;;;;;;5.03;1.70;;;20.50;90.30;;;;;;5050837;28;20450;-33
2022/11/07 07:53:14;;;;;;;4.22;2.00;;;18.50;91.50;;;;;;5041287;28;20294;-34
2022/11/07 07:55:41;;;;;;;5.13;1.73;;;18.00;94.20;;;;;;5033869;28;20195;-35
2022/11/07 07:58:07;;;;;;;6.55;1.85;;;17.50;96.40;;;;;;5033599;28;20207;-34
2022/11/07 08:00:34;;;;;;;7.82;3.28;;;17.70;95.40;;;;;;5034304;28;20294;-34
2022/11/07 08:03:04;;;;;;;3.60;1.40;;;17.20;97.20;;;;;;5039828;28;20200;-34
2022/11/07 08:05:31;;;;;;;5.53;2.42;;;17.30;96.40;;;;;;5043997;28;20698;-34
2022/11/07 08:07:58;;;;;;;3.40;1.75;;;17.60;97.90;;;;;;5040664;28;20203;-35
2022/11/07 08:10:24;;;;;;;5.30;1.50;;;17.60;97.30;;;;;;5050046;28;20187;-35
2022/11/07 08:12:53;;;;;;;3.92;1.50;;;17.30;97.00;;;;;;5037802;28;20203;-34
2022/11/07 08:15:20;;;;;;;7.70;2.90;;;17.50;98.40;;;;;;5033271;28;20200;-35
2022/11/07 08:17:47;;;;;;;5.97;2.28;;;17.10;98.60;;;;;;5040949;28;20602;-46
2022/11/07 08:20:18;;;;;;;5.30;2.10;;;18.50;99.90;;;;;;5039435;28;20199;-44
2022/11/07 08:22:45;;;;;;;4.85;2.40;;;19.50;99.10;;;;;;5039850;28;20277;-43
2022/11/07 08:25:12;;;;;;;3.08;1.80;;;20.00;97.90;;;;;;5035337;28;20246;-45
2022/11/07 08:27:39;;;;;;;3.40;2.00;;;20.20;97.30;;;;;;5033872;28;20196;-44
2022/11/07 08:30:07;;;;;;;3.60;1.52;;;20.30;97.00;;;;;;5031621;28;20196;-44
2022/11/07 08:32:34;;;;;;;2.78;1.77;;;20.40;97.00;;;;;;5031422;28;20212;-44
2022/11/07 08:35:01;;;;;;;3.33;1.67;;;20.50;96.90;;;;;;5038918;28;20206;-44
2022/11/07 08:37:29;;;;;;;3.47;2.05;;;20.60;96.80;;;;;;5052171;28;20187;-44
2022/11/07 08:39:56;;;;;;;3.85;2.60;;;20.70;96.80;;;;;;5037115;28;20651;-43
2022/11/07 08:42:22;;;;;;;2.72;1.77;;;20.70;96.70;;;;;;5034401;28;20210;-44
2022/11/07 08:44:49;;;;;;;6.75;1.70;;;20.80;96.70;;;;;;5037294;28;20211;-44
2022/11/07 08:47:16;;;;;;;4.63;1.80;;;20.80;96.70;;;;;;5047896;28;20200;-44
2022/11/07 08:49:42;;;;;;;4.93;2.10;;;20.80;96.60;;;;;;5041811;28;20613;-44
2022/11/07 08:52:09;;;;;;;2.90;2.15;;;20.90;96.70;;;;;;5035043;28;20203;-46
2022/11/07 08:54:37;;;;;;;3.13;1.48;;;20.90;96.60;;;;;;5031217;28;20207;-45
2022/11/07 08:57:04;;;;;;;2.20;1.60;;;20.90;96.60;;;;;;5034338;28;20211;-44
2022/11/07 08:59:31;;;;;;;3.53;1.80;;;20.90;96.60;;;;;;5033900;28;20192;-44
2022/11/07 09:01:57;;;;;;;4.35;2.35;;;21.00;96.70;;;;;;5032355;28;20454;-44
2022/11/07 09:04:24;;;;;;;5.43;1.60;;;21.00;96.70;;;;;;5045038;28;20198;-45
2022/11/07 09:06:50;;;;;;;3.88;1.60;;;21.00;96.80;;;;;;5042868;28;20445;-43
2022/11/07 09:09:17;;;;;;;5.45;2.17;;;21.00;96.80;;;;;;5035997;28;20200;-43
2022/11/07 09:11:45;;;;;;;3.50;1.70;;;21.00;96.90;;;;;;5030367;28;20199;-45
2022/11/07 09:14:12;;;;;;;2.78;1.77;;;21.00;97.00;;;;;;5032793;28;20191;-46
2022/11/07 09:16:39;;;;;;;6.07;2.27;;;21.10;97.10;;;;;;5031838;28;20219;-44
2022/11/07 09:19:05;;;;;;;2.67;1.60;;;21.00;97.10;;;;;;5039285;28;20462;-43
2022/11/07 09:21:32;;;;;;;2.00;1.73;;;21.00;97.10;;;;;;5031231;28;20443;-45
2022/11/07 09:23:59;;;;;;;3.55;1.63;;;21.10;97.50;;;;;;5038779;28;20465;-44
2022/11/07 09:26:25;;;;;;;3.28;1.70;;;21.00;97.50;;;;;;5032858;28;20219;-43
2022/11/07 09:28:54;;;;;;;3.35;2.08;;;21.00;97.80;;;;;;5045021;28;20211;-43
2022/11/07 09:31:21;;;;;;;3.10;1.88;;;21.10;98.00;;;;;;5034708;28;20195;-44
2022/11/07 09:33:48;;;;;;;4.05;2.15;;;21.00;98.10;;;;;;5035351;28;20199;-43
2022/11/07 09:36:14;;;;;;;3.05;1.55;;;21.00;98.00;;;;;;5032504;28;20195;-45
2022/11/07 09:38:41;;;;;;;10.95;1.55;;;21.00;98.40;;;;;;5035796;28;20195;-42
2022/11/07 09:41:18;;;;;;;5.82;2.00;;;21.00;98.30;;;;;;5030378;28;20298;-43
2022/11/07 09:44:05;;;;;;;9.88;2.33;;;21.00;98.30;;;;;;5048317;28;20199;-44
2022/11/07 09:46:50;;;;;;;18.42;2.13;;;21.00;98.50;;;;;;5032068;28;20215;-43
2022/11/07 09:49:21;;;;;;;2.38;1.35;;;21.10;98.80;;;;;;5035405;28;20195;-44
2022/11/07 09:51:54;;;;;;;3.92;1.98;;;21.10;99.10;;;;;;5049666;28;20558;-43
2022/11/07 09:54:24;;;;;;;5.63;2.75;;;21.00;99.00;;;;;;5044076;28;20202;-43
2022/11/07 09:56:51;;;;;;;4.00;1.80;;;21.00;98.80;;;;;;5038912;28;20203;-44
2022/11/07 09:59:24;;;;;;;6.35;2.10;;;21.00;98.80;;;;;;5041232;28;20191;-44
2022/11/07 10:01:51;;;;;;;2.22;1.67;;;21.00;98.70;;;;;;5030248;28;20192;-45
2022/11/07 10:04:21;;;;;;;4.28;1.75;;;21.00;98.80;;;;;;5034172;28;20650;-43
2022/11/07 10:06:52;;;;;;;3.95;1.70;;;21.00;98.70;;;;;;5033323;28;20222;-43
2022/11/07 10:09:26;;;;;;;4.65;1.95;;;21.00;98.70;;;;;;5038494;28;20207;-44
2022/11/07 10:12:00;;;;;;;3.28;1.45;;;20.90;98.60;;;;;;5030696;28;20560;-44
2022/11/07 10:14:40;;;;;;;3.80;2.10;;;20.90;98.60;;;;;;5031287;28;20200;-43
2022/11/07 10:17:18;;;;;;;3.13;1.80;;;20.90;98.60;;;;;;5032654;28;20216;-46
2022/11/07 10:20:08;;;;;;;2.17;1.38;;;20.90;98.60;;;;;;5035860;28;20655;-43
2022/11/07 10:22:49;;;;;;;4.05;1.52;;;20.90;98.60;;;;;;5045960;28;20554;-43
2022/11/07 10:25:21;;;;;;;3.78;1.60;;;20.90;98.90;;;;;;5046453;28;20219;-44
2022/11/07 10:27:56;;;;;;;3.55;1.40;;;20.90;99.90;;;;;;5036550;28;20658;-43
2022/11/07 10:30:24;;;;;;;2.97;2.03;;;20.80;99.90;;;;;;5038630;28;20728;-43
2022/11/07 10:33:04;;;;;;;2.90;1.85;;;20.80;99.50;;;;;;5032872;28;20218;-43
2022/11/07 10:35:34;;;;;;;3.88;1.75;;;20.80;98.90;;;;;;5041787;28;20199;-43
2022/11/07 10:38:03;;;;;;;3.95;1.75;;;20.80;98.80;;;;;;5046302;28;20195;-43
2022/11/07 10:40:34;;;;;;;5.43;1.30;;;20.80;98.90;;;;;;5040765;28;20252;-43
2022/11/07 10:43:05;;;;;;;3.80;1.75;;;20.70;98.70;;;;;;5040567;28;20203;-43
2022/11/07 10:45:33;;;;;;;4.63;1.70;;;20.70;98.60;;;;;;5034648;28;20215;-43
2022/11/07 10:48:02;;;;;;;1.67;1.45;;;20.70;98.70;;;;;;5034878;28;20203;-42
2022/11/07 10:50:30;;;;;;;2.55;1.50;;;20.70;98.70;;;;;;5034801;28;20199;-44
2022/11/07 10:52:58;;;;;;;4.07;1.92;;;20.70;98.70;;;;;;5042119;28;20198;-43
2022/11/07 10:55:26;;;;;;;2.60;1.83;;;20.70;98.70;;;;;;5035266;28;20199;-43
2022/11/07 10:57:58;;;;;;;3.58;2.15;;;20.70;98.80;;;;;;5034199;28;20196;-43
2022/11/07 11:00:27;;;;;;;3.55;1.65;;;20.70;98.80;;;;;;5041586;28;20195;-43
2022/11/07 11:02:56;;;;;;;2.75;1.60;;;20.60;98.80;;;;;;5035370;28;20200;-43
2022/11/07 11:05:27;;;;;;;2.15;1.30;;;20.60;98.80;;;;;;5045207;28;20253;-43
2022/11/07 11:07:56;;;;;;;2.85;1.75;;;20.60;98.90;;;;;;5037210;28;20196;-43
2022/11/07 11:10:26;;;;;;;1.40;1.23;;;20.60;99.10;;;;;;5035540;28;20234;-44
2022/11/07 11:12:52;;;;;;;5.00;1.30;;;20.60;99.40;;;;;;5040485;28;20286;-43
2022/11/07 11:15:22;;;;;;;1.60;1.10;;;20.50;99.90;;;;;;5041171;28;20206;-44
2022/11/07 11:17:59;;;;;;;2.03;1.50;;;20.50;99.90;;;;;;5032535;28;20223;-43
2022/11/07 11:20:36;;;;;;;8.48;2.15;;;20.50;99.90;;;;;;5033788;28;20690;-28
2022/11/07 11:23:06;;;;;;;8.07;2.38;;;20.40;99.90;;;;;;5032542;28;20302;-31
2022/11/07 11:25:44;;;;;;;4.55;2.22;;;18.60;99.90;;;;;;5036000;28;20223;-30
2022/11/07 11:28:18;;;;;;;5.97;2.10;;;17.50;99.90;;;;;;5043765;28;20490;-32
2022/11/07 11:30:50;;;;;;;5.65;1.98;;;17.20;99.90;;;;;;5036272;28;20199;-30
2022/11/07 11:33:25;;;;;;;6.18;1.85;;;17.20;99.90;;;;;;5037480;28;20261;-34
2022/11/07 11:35:58;;;;;;;3.92;1.60;;;16.90;99.90;;;;;;5036258;28;20187;-34
2022/11/07 11:38:28;;;;;;;4.30;2.30;;;16.90;99.90;;;;;;5033082;28;20690;-34
2022/11/07 11:40:59;;;;;;;4.85;2.08;;;17.00;99.90;;;;;;5035969;28;20203;-33
2022/11/07 11:43:32;;;;;;;3.25;1.40;;;16.70;99.90;;;;;;5039772;28;20204;-35
2022/11/07 11:46:05;;;;;;;3.55;2.00;;;16.50;99.90;;;;;;5039042;28;20215;-41
2022/11/07 11:48:39;;;;;;;4.22;1.90;;;16.50;99.90;;;;;;5044269;28;20199;-33
2022/11/07 11:51:13;;;;;;;5.65;2.15;;;16.70;99.90;;;;;;5037409;28;20205;-32
2022/11/07 11:53:40;;;;;;;4.00;2.08;;;17.00;99.90;;;;;;5035300;28;20195;-30
2022/11/07 11:56:34;;;;;;;5.15;2.33;;;16.90;99.90;;;;;;5033292;28;20208;-33
2022/11/07 11:59:24;;;;;;;4.60;2.22;;;16.60;99.90;;;;;;5040238;28;20195;-32
2022/11/07 12:01:59;;;;;;;7.68;2.65;;;16.40;99.90;;;;;;5033291;28;20254;-37
2022/11/07 12:04:45;;;;;;;8.40;2.25;;;16.60;99.90;;;;;;5036983;28;20203;-33
2022/11/07 12:07:30;;;;;;;6.78;2.92;;;16.70;99.90;;;;;;5031792;28;20461;-35
2022/11/07 12:10:00;;;;;;;6.60;2.40;;;16.50;99.90;;;;;;5037731;28;20199;-33
2022/11/07 12:12:36;;;;;;;4.07;1.70;;;16.50;99.90;;;;;;5037130;28;20222;-37
2022/11/07 12:15:28;;;;;;;3.70;2.13;;;16.50;99.90;;;;;;5034583;28;20329;-30
2022/11/07 12:18:01;;;;;;;3.00;1.52;;;16.50;99.90;;;;;;5031720;28;20280;-30
2022/11/07 12:20:36;;;;;;;5.15;1.98;;;16.60;99.90;;;;;;5041874;28;20203;-36
2022/11/07 12:23:25;;;;;;;3.53;1.95;;;16.50;99.90;;;;;;5041411;28;20198;-39
2022/11/07 12:25:58;;;;;;;6.07;2.67;;;16.80;99.90;;;;;;5033096;28;20235;-30
2022/11/07 12:28:45;;;;;;;3.97;1.95;;;16.50;99.90;;;;;;5039929;28;20206;-31
2022/11/07 12:31:26;;;;;;;11.73;3.05;;;16.40;99.90;;;;;;5029364;28;20191;-30
2022/11/07 12:34:00;;;;;;;16.92;2.42;;;16.60;99.90;;;;;;5034016;28;20196;-30
2022/11/07 12:36:45;;;;;;;8.38;2.65;;;16.70;99.90;;;;;;5039721;28;20510;-30
2022/11/07 12:39:39;;;;;;;9.68;2.55;;;16.60;99.90;;;;;;5033731;28;20574;-34
2022/11/07 12:42:08;;;;;;;10.18;2.60;;;16.60;99.90;;;;;;5028538;28;20215;-37
2022/11/07 12:44:50;;;;;;;8.00;2.35;;;16.70;99.90;;;;;;5035505;28;20711;-31
2022/11/07 12:47:32;;;;;;;6.93;2.38;;;16.90;99.90;;;;;;5038621;28;20577;-30
2022/11/07 12:50:09;;;;;;;8.77;2.47;;;16.90;99.90;;;;;;5038879;28;20187;-31
2022/11/07 12:52:49;;;;;;;4.50;1.85;;;16.80;99.90;;;;;;5050537;28;20199;-35
2022/11/07 12:55:23;;;;;;;8.07;2.25;;;16.70;99.90;;;;;;5030088;28;20733;-34
2022/11/07 12:57:53;;;;;;;13.23;3.08;;;16.70;99.90;;;;;;5033037;28;20199;-37
2022/11/07 13:00:21;;;;;;;9.82;2.80;;;16.70;99.90;;;;;;5032886;28;20199;-34
2022/11/07 13:02:58;;;;;;;5.18;2.60;;;16.60;99.90;;;;;;5031795;28;20679;-34
2022/11/07 13:05:37;;;;;;;4.95;2.13;;;16.60;99.90;;;;;;5036810;28;20199;-34
2022/11/07 13:08:10;;;;;;;4.95;2.28;;;16.50;99.90;;;;;;5036227;28;20264;-33